createdAt,value
2023-05-15T00:01:48.474Z,20.81
2023-05-15T00:06:51.669Z,19.28
2023-05-15T00:11:54.616Z,18.40
2023-05-15T00:16:57.805Z,17.77
2023-05-15T00:22:00.728Z,17.27
2023-05-15T00:27:04.460Z,17.97
2023-05-15T00:32:07.704Z,20.50
2023-05-15T00:37:10.917Z,20.55
2023-05-15T00:42:17.355Z,19.08
2023-05-15T00:47:21.268Z,18.25
2023-05-15T00:52:24.561Z,17.66
2023-05-15T00:57:28.182Z,18.12
2023-05-15T01:02:31.469Z,20.63
2023-05-15T01:07:40.137Z,20.75
2023-05-15T01:12:44.750Z,19.25
2023-05-15T01:21:33.458Z,17.93
2023-05-15T01:27:20.678Z,17.39
2023-05-15T01:33:12.310Z,18.50
2023-05-15T01:38:40.669Z,21.15
2023-05-15T01:43:46.136Z,20.33
2023-05-15T01:48:51.011Z,18.87
2023-05-15T01:53:56.533Z,18.07
2023-05-15T01:59:00.985Z,17.45
2023-05-15T02:04:06.038Z,18.05
2023-05-15T02:09:10.528Z,20.52
2023-05-15T02:14:16.589Z,20.37
2023-05-15T02:19:19.805Z,18.85
2023-05-15T02:24:22.990Z,17.95
2023-05-15T02:29:42.231Z,17.36
2023-05-15T02:35:02.065Z,19.21
2023-05-15T02:40:10.193Z,20.27
2023-05-15T02:45:14.607Z,18.81
2023-05-15T02:50:19.000Z,17.84
2023-05-15T02:55:22.384Z,17.29
2023-05-15T03:00:26.263Z,18.07
2023-05-15T03:05:29.498Z,20.55
2023-05-15T03:10:32.726Z,21.01
2023-05-15T03:15:36.048Z,19.49
2023-05-15T03:20:39.289Z,18.51
2023-05-15T03:25:43.529Z,17.83
2023-05-15T03:30:46.762Z,18.30
2023-05-15T03:35:51.410Z,20.78
2023-05-15T03:40:54.854Z,20.48
2023-05-15T03:45:59.627Z,18.95
2023-05-15T03:51:03.538Z,18.10
2023-05-15T03:56:08.043Z,17.53
2023-05-15T04:01:11.788Z,18.29
2023-05-15T04:06:15.206Z,20.76
2023-05-15T04:11:19.394Z,21.09
2023-05-15T04:16:23.212Z,19.59
2023-05-15T04:21:26.677Z,18.67
2023-05-15T04:26:30.336Z,18.07
2023-05-15T04:31:35.340Z,17.56
2023-05-15T04:36:40.642Z,18.19
2023-05-15T04:41:44.631Z,20.70
2023-05-15T04:46:47.979Z,21.23
2023-05-15T04:51:51.246Z,19.76
2023-05-15T04:56:54.932Z,18.81
2023-05-15T05:02:05.287Z,18.18
2023-05-15T05:07:08.859Z,18.77
2023-05-15T05:12:14.776Z,21.31
2023-05-15T05:17:19.185Z,20.81
2023-05-15T05:22:22.459Z,19.43
2023-05-15T05:27:25.593Z,18.70
2023-05-15T05:32:28.776Z,18.18
2023-05-15T05:37:32.910Z,18.92
2023-05-15T05:42:36.911Z,21.41
2023-05-15T05:47:40.233Z,20.95
2023-05-15T05:52:43.621Z,19.48
2023-05-15T05:57:47.222Z,18.65
2023-05-15T06:02:55.728Z,18.03
2023-05-15T06:08:01.521Z,18.60
2023-05-15T06:13:05.060Z,21.01
2023-05-15T06:18:08.098Z,21.28
2023-05-15T06:23:11.176Z,19.76
2023-05-15T06:28:14.114Z,18.84
2023-05-15T06:33:17.221Z,18.26
2023-05-15T06:38:20.288Z,18.90
2023-05-15T06:43:23.226Z,21.40
2023-05-15T06:48:26.120Z,21.60
2023-05-15T06:53:30.203Z,20.11
2023-05-15T06:58:33.115Z,19.19
2023-05-15T07:03:36.227Z,18.57
2023-05-15T07:08:39.189Z,19.16
2023-05-15T07:13:42.174Z,21.46
2023-05-15T07:18:45.292Z,21.95
2023-05-15T07:23:48.272Z,20.57
2023-05-15T07:28:51.804Z,19.68
2023-05-15T07:33:54.743Z,19.07
2023-05-15T07:38:57.758Z,18.66
2023-05-15T07:44:00.743Z,19.47
2023-05-15T07:49:03.887Z,22.06
2023-05-15T07:54:06.839Z,22.11
2023-05-15T07:59:09.832Z,20.74
2023-05-15T08:04:13.043Z,19.89
2023-05-15T08:09:16.106Z,19.35
2023-05-15T08:14:19.073Z,18.89
2023-05-15T08:19:23.931Z,19.60
2023-05-15T08:24:26.982Z,22.15
2023-05-15T08:29:29.874Z,22.00
2023-05-15T08:34:32.792Z,20.75
2023-05-15T08:39:35.780Z,20.03
2023-05-15T08:44:39.534Z,19.53
2023-05-15T08:50:04.697Z,19.16
2023-05-15T08:55:08.216Z,18.85
2023-05-15T09:00:15.000Z,19.74
2023-05-15T09:05:18.308Z,22.38
2023-05-15T09:10:22.246Z,22.13
2023-05-15T09:15:25.811Z,20.99
2023-05-15T09:20:34.628Z,20.36
2023-05-15T09:25:42.692Z,19.91
2023-05-15T09:30:46.047Z,19.53
2023-05-15T09:35:49.028Z,19.25
2023-05-15T09:41:02.178Z,19.01
2023-05-15T09:46:06.662Z,19.98
2023-05-15T09:51:18.685Z,22.51
2023-05-15T09:56:22.908Z,22.34
2023-05-15T10:01:27.830Z,21.13
2023-05-15T10:06:40.680Z,20.45
2023-05-15T10:11:53.128Z,19.94
2023-05-15T10:16:57.191Z,19.52
2023-05-15T10:22:00.708Z,19.20
2023-05-15T10:27:04.718Z,18.97
2023-05-15T10:32:08.526Z,19.84
2023-05-15T10:37:12.687Z,22.47
2023-05-15T10:42:17.042Z,22.21
2023-05-15T10:47:20.921Z,21.15
2023-05-15T10:52:24.524Z,20.57
2023-05-15T10:57:30.347Z,20.17
2023-05-15T11:02:39.293Z,19.82
2023-05-15T11:07:43.261Z,19.53
2023-05-15T11:12:56.724Z,20.38
2023-05-15T11:18:07.266Z,22.98
2023-05-15T11:23:10.417Z,22.82
2023-05-15T11:28:25.577Z,21.70
2023-05-15T11:33:31.657Z,21.03
2023-05-15T11:38:40.200Z,20.58
2023-05-15T11:43:43.221Z,20.26
2023-05-15T11:48:50.264Z,19.97
2023-05-15T11:53:56.281Z,19.69
2023-05-15T11:59:01.300Z,20.64
2023-05-15T12:04:13.199Z,23.37
2023-05-15T12:09:19.168Z,24.05
2023-05-15T12:14:31.465Z,23.00
2023-05-15T12:19:35.818Z,22.46
2023-05-15T12:24:40.521Z,22.14
2023-05-15T12:29:43.727Z,22.01
2023-05-15T12:34:47.136Z,22.15
2023-05-15T12:40:00.173Z,22.33
2023-05-15T12:45:03.493Z,22.60
2023-05-15T12:50:12.981Z,22.70
2023-05-15T12:55:17.546Z,22.78
2023-05-15T13:00:22.788Z,22.97
2023-05-15T13:05:27.033Z,23.15
2023-05-15T13:10:33.510Z,23.30
2023-05-15T13:15:42.273Z,23.18
2023-05-15T13:20:49.570Z,22.81
2023-05-15T13:25:52.561Z,22.42
2023-05-15T13:30:55.604Z,22.03
2023-05-15T13:35:58.829Z,21.68
2023-05-15T13:41:01.952Z,21.38
2023-05-15T13:46:05.149Z,21.07
2023-05-15T13:51:08.761Z,20.76
2023-05-15T13:56:12.490Z,21.43
2023-05-15T14:01:15.613Z,23.80
2023-05-15T14:06:18.673Z,23.81
2023-05-15T14:11:22.941Z,22.52
2023-05-15T14:16:25.921Z,21.78
2023-05-15T14:21:29.208Z,21.24
2023-05-15T14:26:32.727Z,20.84
2023-05-15T14:31:36.015Z,20.66
2023-05-15T14:36:39.087Z,20.53
2023-05-15T14:41:43.018Z,21.64
2023-05-15T14:46:46.014Z,24.29
2023-05-15T14:51:49.022Z,24.71
2023-05-15T14:56:51.995Z,23.46
2023-05-15T15:01:55.535Z,22.72
2023-05-15T15:06:58.736Z,22.23
2023-05-15T15:12:03.446Z,21.84
2023-05-15T15:17:06.410Z,21.48
2023-05-15T15:22:09.553Z,21.16
2023-05-15T15:27:12.520Z,20.88
2023-05-15T15:32:15.750Z,21.66
2023-05-15T15:37:18.747Z,23.33
2023-05-15T15:42:30.537Z,22.31
2023-05-15T15:47:33.657Z,21.75
2023-05-15T15:52:36.872Z,21.43
2023-05-15T15:57:39.808Z,21.17
2023-05-15T16:02:43.061Z,20.94
2023-05-15T16:07:47.975Z,20.76
2023-05-15T16:12:51.312Z,20.59
2023-05-15T16:17:55.002Z,20.41
2023-05-15T16:22:59.649Z,20.29
2023-05-15T16:28:02.836Z,20.19
2023-05-15T16:33:05.959Z,20.09
2023-05-15T16:38:09.327Z,19.94
2023-05-15T16:43:13.711Z,19.82
2023-05-15T16:48:16.858Z,19.70
2023-05-15T16:53:20.221Z,19.65
2023-05-15T16:58:23.314Z,19.59
2023-05-15T17:03:26.384Z,19.53
2023-05-15T17:08:29.558Z,19.48
2023-05-15T17:13:32.527Z,19.43
2023-05-15T17:18:35.669Z,19.37
2023-05-15T19:25:29.922Z,18.02
2023-05-15T19:30:33.577Z,17.96
2023-05-15T19:35:37.732Z,17.92
2023-05-15T19:40:44.012Z,17.91
2023-05-15T19:45:47.669Z,17.88
2023-05-15T19:50:51.138Z,17.84
2023-05-15T19:55:54.171Z,17.78
2023-05-15T20:00:57.617Z,17.73
2023-05-15T20:06:03.982Z,17.66
2023-05-15T20:11:06.977Z,17.58
2023-05-15T20:16:12.806Z,17.49
2023-05-15T20:21:16.109Z,17.41
2023-05-15T20:26:20.413Z,17.38
2023-05-15T20:31:23.713Z,17.33
2023-05-15T20:36:27.147Z,17.28
2023-05-15T20:41:30.512Z,17.22
2023-05-15T20:46:33.631Z,17.15
2023-05-15T20:51:36.836Z,17.11
2023-05-15T20:56:40.105Z,17.05
2023-05-15T21:01:43.364Z,17.01
2023-05-15T21:06:46.425Z,16.96
2023-05-15T21:11:49.491Z,16.91
2023-05-15T21:16:55.117Z,16.85
2023-05-15T21:21:58.121Z,16.79
2023-05-15T21:27:01.081Z,16.74
2023-05-15T21:32:05.979Z,16.71
2023-05-15T21:37:10.995Z,16.66
2023-05-15T21:42:13.889Z,16.63
2023-05-15T21:47:17.216Z,16.59
2023-05-15T21:52:20.136Z,16.55
2023-05-15T21:57:24.502Z,16.50
2023-05-15T22:02:27.519Z,16.47
2023-05-15T22:07:30.607Z,16.42
2023-05-15T22:12:34.358Z,16.36
2023-05-15T22:17:37.484Z,16.34
2023-05-15T22:22:42.636Z,16.32
2023-05-15T22:27:46.375Z,16.30
2023-05-15T22:32:49.410Z,16.30
2023-05-15T22:37:52.695Z,16.28
2023-05-15T22:42:55.581Z,16.24
2023-05-15T22:47:58.666Z,16.19
2023-05-15T22:53:01.742Z,16.10
2023-05-15T22:58:04.904Z,15.98
2023-05-15T23:03:08.497Z,15.85
2023-05-15T23:08:11.716Z,16.77
2023-05-15T23:13:14.749Z,19.65
2023-05-15T23:18:17.872Z,20.25
2023-05-15T23:23:21.442Z,18.90
2023-05-15T23:28:24.602Z,18.10
2023-05-15T23:33:27.733Z,17.60
2023-05-15T23:38:30.896Z,17.21
2023-05-15T23:43:33.985Z,16.88
2023-05-15T23:48:36.960Z,16.59
2023-05-15T23:53:39.923Z,16.38
2023-05-15T23:58:42.997Z,16.19
